sensor_id;sensor_type;location;lat;lon;timestamp;temperature;humidity
26212;DHT22;13951;49.516;6.094;2022-07-29T00:00:42;20.10;99.90
26212;DHT22;13951;49.516;6.094;2022-07-29T00:03:18;20.10;99.90
26212;DHT22;13951;49.516;6.094;2022-07-29T00:05:51;20.10;99.90
26212;DHT22;13951;49.516;6.094;2022-07-29T00:08:25;20.00;99.90
26212;DHT22;13951;49.516;6.094;2022-07-29T00:10:58;20.00;99.90
26212;DHT22;13951;49.516;6.094;2022-07-29T00:13:31;20.00;99.90
26212;DHT22;13951;49.516;6.094;2022-07-29T00:16:04;20.00;99.90
26212;DHT22;13951;49.516;6.094;2022-07-29T00:18:37;19.90;99.90
26212;DHT22;13951;49.516;6.094;2022-07-29T00:21:12;19.90;99.90
26212;DHT22;13951;49.516;6.094;2022-07-29T00:23:45;19.80;99.90
26212;DHT22;13951;49.516;6.094;2022-07-29T00:26:18;19.80;99.90
26212;DHT22;13951;49.516;6.094;2022-07-29T00:28:51;19.70;99.90
26212;DHT22;13951;49.516;6.094;2022-07-29T00:31:44;19.70;99.90
26212;DHT22;13951;49.516;6.094;2022-07-29T00:34:18;19.60;99.90
26212;DHT22;13951;49.516;6.094;2022-07-29T00:37:09;19.60;99.90
26212;DHT22;13951;49.516;6.094;2022-07-29T00:39:42;19.50;99.90
26212;DHT22;13951;49.516;6.094;2022-07-29T00:42:16;19.40;99.90
26212;DHT22;13951;49.516;6.094;2022-07-29T00:44:49;19.40;99.90
26212;DHT22;13951;49.516;6.094;2022-07-29T00:47:22;19.30;99.90
26212;DHT22;13951;49.516;6.094;2022-07-29T00:49:55;19.20;99.90
26212;DHT22;13951;49.516;6.094;2022-07-29T00:52:28;19.30;99.90
26212;DHT22;13951;49.516;6.094;2022-07-29T00:55:03;19.20;99.90
26212;DHT22;13951;49.516;6.094;2022-07-29T00:57:42;19.20;99.90
26212;DHT22;13951;49.516;6.094;2022-07-29T01:00:20;19.10;99.90
26212;DHT22;13951;49.516;6.094;2022-07-29T01:02:53;19.00;99.90
26212;DHT22;13951;49.516;6.094;2022-07-29T01:05:27;18.90;99.90
26212;DHT22;13951;49.516;6.094;2022-07-29T01:08:21;18.80;99.90
26212;DHT22;13951;49.516;6.094;2022-07-29T01:10:56;18.70;99.90
26212;DHT22;13951;49.516;6.094;2022-07-29T01:13:30;18.70;99.90
26212;DHT22;13951;49.516;6.094;2022-07-29T01:16:09;18.70;99.90
26212;DHT22;13951;49.516;6.094;2022-07-29T01:18:46;18.70;99.90
26212;DHT22;13951;49.516;6.094;2022-07-29T01:21:52;18.60;99.90
26212;DHT22;13951;49.516;6.094;2022-07-29T01:29:46;18.60;99.90
26212;DHT22;13951;49.516;6.094;2022-07-29T01:32:25;18.50;99.90
26212;DHT22;13951;49.516;6.094;2022-07-29T01:35:21;18.60;99.90
26212;DHT22;13951;49.516;6.094;2022-07-29T01:40:43;18.50;99.90
26212;DHT22;13951;49.516;6.094;2022-07-29T01:43:29;18.30;99.90
26212;DHT22;13951;49.516;6.094;2022-07-29T01:46:13;18.30;99.90
26212;DHT22;13951;49.516;6.094;2022-07-29T01:48:50;18.30;99.90
26212;DHT22;13951;49.516;6.094;2022-07-29T01:51:43;18.30;99.90
26212;DHT22;13951;49.516;6.094;2022-07-29T01:54:24;18.30;99.90
26212;DHT22;13951;49.516;6.094;2022-07-29T01:56:59;18.20;99.90
26212;DHT22;13951;49.516;6.094;2022-07-29T01:59:34;18.20;99.90
26212;DHT22;13951;49.516;6.094;2022-07-29T02:02:11;18.20;99.90
26212;DHT22;13951;49.516;6.094;2022-07-29T02:04:47;18.10;99.90
26212;DHT22;13951;49.516;6.094;2022-07-29T02:07:23;18.20;99.90
26212;DHT22;13951;49.516;6.094;2022-07-29T02:10:04;18.20;99.90
26212;DHT22;13951;49.516;6.094;2022-07-29T02:12:40;18.20;99.90
26212;DHT22;13951;49.516;6.094;2022-07-29T02:15:24;18.20;99.90
26212;DHT22;13951;49.516;6.094;2022-07-29T02:18:19;18.20;99.90
26212;DHT22;13951;49.516;6.094;2022-07-29T02:20:54;18.20;99.90
26212;DHT22;13951;49.516;6.094;2022-07-29T02:23:30;18.30;99.90
26212;DHT22;13951;49.516;6.094;2022-07-29T02:26:24;18.30;99.90
26212;DHT22;13951;49.516;6.094;2022-07-29T02:29:00;18.30;99.90
26212;DHT22;13951;49.516;6.094;2022-07-29T02:31:34;18.30;99.90
26212;DHT22;13951;49.516;6.094;2022-07-29T02:34:10;18.30;99.90
26212;DHT22;13951;49.516;6.094;2022-07-29T02:36:47;18.30;99.90
26212;DHT22;13951;49.516;6.094;2022-07-29T02:39:21;18.20;99.90
26212;DHT22;13951;49.516;6.094;2022-07-29T02:42:02;18.30;99.90
26212;DHT22;13951;49.516;6.094;2022-07-29T02:44:36;18.20;99.90
26212;DHT22;13951;49.516;6.094;2022-07-29T02:47:18;18.30;99.90
26212;DHT22;13951;49.516;6.094;2022-07-29T02:50:11;18.30;99.90
26212;DHT22;13951;49.516;6.094;2022-07-29T02:52:49;18.20;99.90
26212;DHT22;13951;49.516;6.094;2022-07-29T02:55:36;18.20;99.90
26212;DHT22;13951;49.516;6.094;2022-07-29T02:58:29;18.20;99.90
26212;DHT22;13951;49.516;6.094;2022-07-29T03:01:13;18.20;99.90
26212;DHT22;13951;49.516;6.094;2022-07-29T03:03:54;18.20;99.90
26212;DHT22;13951;49.516;6.094;2022-07-29T03:06:27;18.30;99.90
26212;DHT22;13951;49.516;6.094;2022-07-29T03:09:11;18.30;99.90
26212;DHT22;13951;49.516;6.094;2022-07-29T03:11:45;18.30;99.90
26212;DHT22;13951;49.516;6.094;2022-07-29T03:14:23;18.40;99.90
26212;DHT22;13951;49.516;6.094;2022-07-29T03:16:57;18.40;99.90
26212;DHT22;13951;49.516;6.094;2022-07-29T03:19:31;18.50;99.90
26212;DHT22;13951;49.516;6.094;2022-07-29T03:22:04;18.50;99.90
26212;DHT22;13951;49.516;6.094;2022-07-29T03:24:37;18.50;99.90
26212;DHT22;13951;49.516;6.094;2022-07-29T03:27:11;18.50;99.90
26212;DHT22;13951;49.516;6.094;2022-07-29T03:29:44;18.50;99.90
26212;DHT22;13951;49.516;6.094;2022-07-29T03:32:22;18.40;99.90
26212;DHT22;13951;49.516;6.094;2022-07-29T03:34:58;18.30;99.90
26212;DHT22;13951;49.516;6.094;2022-07-29T03:37:31;18.30;99.90
26212;DHT22;13951;49.516;6.094;2022-07-29T03:40:07;18.10;99.90
26212;DHT22;13951;49.516;6.094;2022-07-29T03:42:42;18.00;99.90
26212;DHT22;13951;49.516;6.094;2022-07-29T03:45:18;17.90;99.90
26212;DHT22;13951;49.516;6.094;2022-07-29T03:48:02;17.90;99.90
26212;DHT22;13951;49.516;6.094;2022-07-29T03:50:38;17.90;99.90
26212;DHT22;13951;49.516;6.094;2022-07-29T03:53:12;17.90;99.90
26212;DHT22;13951;49.516;6.094;2022-07-29T03:55:48;17.80;99.90
26212;DHT22;13951;49.516;6.094;2022-07-29T03:58:26;17.80;99.90
26212;DHT22;13951;49.516;6.094;2022-07-29T04:01:00;17.70;99.90
26212;DHT22;13951;49.516;6.094;2022-07-29T04:03:34;17.70;99.90
26212;DHT22;13951;49.516;6.094;2022-07-29T04:06:09;17.60;99.90
26212;DHT22;13951;49.516;6.094;2022-07-29T04:08:42;17.60;99.90
26212;DHT22;13951;49.516;6.094;2022-07-29T04:11:15;17.60;99.90
26212;DHT22;13951;49.516;6.094;2022-07-29T04:13:48;17.60;99.90
26212;DHT22;13951;49.516;6.094;2022-07-29T04:16:21;17.60;99.90
26212;DHT22;13951;49.516;6.094;2022-07-29T04:18:55;17.60;99.90
26212;DHT22;13951;49.516;6.094;2022-07-29T04:21:28;17.60;99.90
26212;DHT22;13951;49.516;6.094;2022-07-29T04:24:01;17.60;99.90
26212;DHT22;13951;49.516;6.094;2022-07-29T04:26:34;17.60;99.90
26212;DHT22;13951;49.516;6.094;2022-07-29T04:29:07;17.60;99.90
26212;DHT22;13951;49.516;6.094;2022-07-29T04:31:41;17.60;99.90
26212;DHT22;13951;49.516;6.094;2022-07-29T04:34:14;17.60;99.90
26212;DHT22;13951;49.516;6.094;2022-07-29T04:36:48;17.60;99.90
26212;DHT22;13951;49.516;6.094;2022-07-29T04:39:21;17.60;99.90
26212;DHT22;13951;49.516;6.094;2022-07-29T04:41:55;17.60;99.90
26212;DHT22;13951;49.516;6.094;2022-07-29T04:44:28;17.70;99.90
26212;DHT22;13951;49.516;6.094;2022-07-29T04:47:02;17.70;99.90
26212;DHT22;13951;49.516;6.094;2022-07-29T04:49:38;17.70;99.90
26212;DHT22;13951;49.516;6.094;2022-07-29T04:52:11;17.70;99.90
26212;DHT22;13951;49.516;6.094;2022-07-29T04:54:44;17.70;99.90
26212;DHT22;13951;49.516;6.094;2022-07-29T04:57:17;17.70;99.90
26212;DHT22;13951;49.516;6.094;2022-07-29T04:59:50;17.70;99.90
26212;DHT22;13951;49.516;6.094;2022-07-29T05:02:23;17.70;99.90
26212;DHT22;13951;49.516;6.094;2022-07-29T05:04:56;17.70;99.90
26212;DHT22;13951;49.516;6.094;2022-07-29T05:07:29;17.70;99.90
26212;DHT22;13951;49.516;6.094;2022-07-29T05:10:03;17.70;99.90
26212;DHT22;13951;49.516;6.094;2022-07-29T05:12:36;17.70;99.90
26212;DHT22;13951;49.516;6.094;2022-07-29T05:15:10;17.80;99.90
26212;DHT22;13951;49.516;6.094;2022-07-29T05:17:44;17.80;99.90
26212;DHT22;13951;49.516;6.094;2022-07-29T05:20:17;17.90;99.90
26212;DHT22;13951;49.516;6.094;2022-07-29T05:22:51;17.90;99.90
26212;DHT22;13951;49.516;6.094;2022-07-29T05:25:25;18.00;99.90
26212;DHT22;13951;49.516;6.094;2022-07-29T05:28:16;18.10;99.90
26212;DHT22;13951;49.516;6.094;2022-07-29T05:30:49;18.20;99.90
26212;DHT22;13951;49.516;6.094;2022-07-29T05:33:23;18.20;99.90
26212;DHT22;13951;49.516;6.094;2022-07-29T05:36:08;18.30;99.90
26212;DHT22;13951;49.516;6.094;2022-07-29T05:38:41;18.40;99.90
26212;DHT22;13951;49.516;6.094;2022-07-29T05:41:14;18.50;99.90
26212;DHT22;13951;49.516;6.094;2022-07-29T05:43:47;18.60;99.90
26212;DHT22;13951;49.516;6.094;2022-07-29T05:46:20;18.70;99.90
26212;DHT22;13951;49.516;6.094;2022-07-29T05:48:53;18.90;99.90
26212;DHT22;13951;49.516;6.094;2022-07-29T05:51:26;19.00;99.90
26212;DHT22;13951;49.516;6.094;2022-07-29T05:53:59;19.20;99.90
26212;DHT22;13951;49.516;6.094;2022-07-29T05:56:33;19.30;99.90
26212;DHT22;13951;49.516;6.094;2022-07-29T05:59:06;19.50;99.90
26212;DHT22;13951;49.516;6.094;2022-07-29T06:01:50;19.70;99.90
26212;DHT22;13951;49.516;6.094;2022-07-29T06:04:23;20.00;99.90
26212;DHT22;13951;49.516;6.094;2022-07-29T06:06:56;20.20;99.90
26212;DHT22;13951;49.516;6.094;2022-07-29T06:09:29;20.30;99.90
26212;DHT22;13951;49.516;6.094;2022-07-29T06:12:03;20.50;99.90
26212;DHT22;13951;49.516;6.094;2022-07-29T06:14:36;20.70;99.90
26212;DHT22;13951;49.516;6.094;2022-07-29T06:17:10;20.80;99.90
26212;DHT22;13951;49.516;6.094;2022-07-29T06:19:44;20.80;99.90
26212;DHT22;13951;49.516;6.094;2022-07-29T06:22:17;20.90;99.90
26212;DHT22;13951;49.516;6.094;2022-07-29T06:24:51;21.10;99.90
26212;DHT22;13951;49.516;6.094;2022-07-29T06:27:24;21.20;99.90
26212;DHT22;13951;49.516;6.094;2022-07-29T06:29:57;21.30;99.90
26212;DHT22;13951;49.516;6.094;2022-07-29T06:32:30;21.40;99.90
26212;DHT22;13951;49.516;6.094;2022-07-29T06:35:04;21.40;99.90
26212;DHT22;13951;49.516;6.094;2022-07-29T06:37:57;21.40;99.90
26212;DHT22;13951;49.516;6.094;2022-07-29T06:40:31;21.60;99.90
26212;DHT22;13951;49.516;6.094;2022-07-29T06:43:23;21.80;99.90
26212;DHT22;13951;49.516;6.094;2022-07-29T06:46:02;22.10;99.90
26212;DHT22;13951;49.516;6.094;2022-07-29T06:48:36;22.30;99.90
26212;DHT22;13951;49.516;6.094;2022-07-29T06:51:10;22.40;99.90
26212;DHT22;13951;49.516;6.094;2022-07-29T06:53:44;22.60;99.90
26212;DHT22;13951;49.516;6.094;2022-07-29T06:56:36;22.70;99.90
26212;DHT22;13951;49.516;6.094;2022-07-29T06:59:12;22.80;99.90
26212;DHT22;13951;49.516;6.094;2022-07-29T07:01:45;22.90;99.90
26212;DHT22;13951;49.516;6.094;2022-07-29T07:04:19;23.10;99.90
26212;DHT22;13951;49.516;6.094;2022-07-29T07:06:53;23.40;99.90
26212;DHT22;13951;49.516;6.094;2022-07-29T07:09:28;23.70;99.90
26212;DHT22;13951;49.516;6.094;2022-07-29T07:12:12;23.90;99.90
26212;DHT22;13951;49.516;6.094;2022-07-29T07:14:45;24.30;99.90
26212;DHT22;13951;49.516;6.094;2022-07-29T07:17:18;24.60;99.90
26212;DHT22;13951;49.516;6.094;2022-07-29T07:19:51;24.70;99.90
26212;DHT22;13951;49.516;6.094;2022-07-29T07:22:24;24.70;99.90
26212;DHT22;13951;49.516;6.094;2022-07-29T07:24:58;24.70;99.90
26212;DHT22;13951;49.516;6.094;2022-07-29T07:27:31;24.60;99.90
26212;DHT22;13951;49.516;6.094;2022-07-29T07:30:06;24.50;99.90
26212;DHT22;13951;49.516;6.094;2022-07-29T07:32:39;24.40;99.90
26212;DHT22;13951;49.516;6.094;2022-07-29T07:35:12;24.50;99.90
26212;DHT22;13951;49.516;6.094;2022-07-29T07:37:47;24.50;99.90
26212;DHT22;13951;49.516;6.094;2022-07-29T07:40:20;24.40;99.90
26212;DHT22;13951;49.516;6.094;2022-07-29T07:42:53;24.50;99.90
26212;DHT22;13951;49.516;6.094;2022-07-29T07:45:26;24.40;99.90
26212;DHT22;13951;49.516;6.094;2022-07-29T07:48:00;24.30;99.90
26212;DHT22;13951;49.516;6.094;2022-07-29T07:50:33;24.30;99.90
26212;DHT22;13951;49.516;6.094;2022-07-29T07:53:06;24.30;99.90
26212;DHT22;13951;49.516;6.094;2022-07-29T07:55:42;24.30;99.90
26212;DHT22;13951;49.516;6.094;2022-07-29T07:58:35;24.50;99.90
26212;DHT22;13951;49.516;6.094;2022-07-29T08:01:09;24.60;99.90
26212;DHT22;13951;49.516;6.094;2022-07-29T08:03:42;24.70;99.90
26212;DHT22;13951;49.516;6.094;2022-07-29T08:06:16;24.80;99.90
26212;DHT22;13951;49.516;6.094;2022-07-29T08:08:48;24.80;99.90
26212;DHT22;13951;49.516;6.094;2022-07-29T08:11:23;25.00;99.90
26212;DHT22;13951;49.516;6.094;2022-07-29T08:13:56;25.10;99.90
26212;DHT22;13951;49.516;6.094;2022-07-29T08:16:29;25.20;99.90
26212;DHT22;13951;49.516;6.094;2022-07-29T08:19:03;25.20;99.90
26212;DHT22;13951;49.516;6.094;2022-07-29T08:21:37;25.30;99.90
26212;DHT22;13951;49.516;6.094;2022-07-29T08:24:10;25.20;99.90
26212;DHT22;13951;49.516;6.094;2022-07-29T08:27:02;25.30;99.90
26212;DHT22;13951;49.516;6.094;2022-07-29T08:29:35;25.20;99.90
26212;DHT22;13951;49.516;6.094;2022-07-29T08:32:10;25.20;99.90
26212;DHT22;13951;49.516;6.094;2022-07-29T08:34:43;25.40;99.90
26212;DHT22;13951;49.516;6.094;2022-07-29T08:37:18;25.50;99.90
26212;DHT22;13951;49.516;6.094;2022-07-29T08:39:51;25.60;99.90
26212;DHT22;13951;49.516;6.094;2022-07-29T08:42:24;25.60;99.90
26212;DHT22;13951;49.516;6.094;2022-07-29T08:44:59;25.60;99.90
26212;DHT22;13951;49.516;6.094;2022-07-29T08:47:32;25.70;99.90
26212;DHT22;13951;49.516;6.094;2022-07-29T08:50:07;25.80;99.90
26212;DHT22;13951;49.516;6.094;2022-07-29T08:52:41;25.90;99.90
26212;DHT22;13951;49.516;6.094;2022-07-29T08:55:15;26.10;99.90
26212;DHT22;13951;49.516;6.094;2022-07-29T08:57:53;26.30;99.90
26212;DHT22;13951;49.516;6.094;2022-07-29T09:00:29;26.50;99.90
26212;DHT22;13951;49.516;6.094;2022-07-29T09:03:04;26.50;99.90
26212;DHT22;13951;49.516;6.094;2022-07-29T09:05:37;26.50;99.90
26212;DHT22;13951;49.516;6.094;2022-07-29T09:08:19;26.50;99.90
26212;DHT22;13951;49.516;6.094;2022-07-29T09:10:53;26.60;99.90
26212;DHT22;13951;49.516;6.094;2022-07-29T09:13:26;26.60;99.90
26212;DHT22;13951;49.516;6.094;2022-07-29T09:16:00;26.60;99.90
26212;DHT22;13951;49.516;6.094;2022-07-29T09:18:42;26.60;99.90
26212;DHT22;13951;49.516;6.094;2022-07-29T09:21:16;26.70;99.90
26212;DHT22;13951;49.516;6.094;2022-07-29T09:24:13;26.80;99.90
26212;DHT22;13951;49.516;6.094;2022-07-29T09:26:46;27.00;99.90
26212;DHT22;13951;49.516;6.094;2022-07-29T09:29:22;27.10;99.90
26212;DHT22;13951;49.516;6.094;2022-07-29T09:31:55;27.20;99.90
26212;DHT22;13951;49.516;6.094;2022-07-29T09:34:29;27.40;99.90
26212;DHT22;13951;49.516;6.094;2022-07-29T09:37:04;27.60;97.70
26212;DHT22;13951;49.516;6.094;2022-07-29T09:39:39;27.80;92.40
26212;DHT22;13951;49.516;6.094;2022-07-29T09:42:28;27.90;99.90
26212;DHT22;13951;49.516;6.094;2022-07-29T09:45:01;27.90;99.90
26212;DHT22;13951;49.516;6.094;2022-07-29T09:47:42;27.80;99.60
26212;DHT22;13951;49.516;6.094;2022-07-29T09:50:17;27.60;99.60
26212;DHT22;13951;49.516;6.094;2022-07-29T09:52:56;27.50;98.80
26212;DHT22;13951;49.516;6.094;2022-07-29T09:55:29;27.50;99.10
26212;DHT22;13951;49.516;6.094;2022-07-29T09:58:19;27.60;98.60
26212;DHT22;13951;49.516;6.094;2022-07-29T10:00:55;27.50;97.80
26212;DHT22;13951;49.516;6.094;2022-07-29T10:03:29;27.50;98.30
26212;DHT22;13951;49.516;6.094;2022-07-29T10:06:06;27.50;97.90
26212;DHT22;13951;49.516;6.094;2022-07-29T10:08:39;27.40;97.30
26212;DHT22;13951;49.516;6.094;2022-07-29T10:11:15;27.40;98.10
26212;DHT22;13951;49.516;6.094;2022-07-29T10:13:50;27.30;97.50
26212;DHT22;13951;49.516;6.094;2022-07-29T10:16:23;27.20;97.60
26212;DHT22;13951;49.516;6.094;2022-07-29T10:19:01;27.20;97.90
26212;DHT22;13951;49.516;6.094;2022-07-29T10:21:35;27.10;97.40
26212;DHT22;13951;49.516;6.094;2022-07-29T10:24:11;27.20;98.20
26212;DHT22;13951;49.516;6.094;2022-07-29T10:26:47;27.30;98.10
26212;DHT22;13951;49.516;6.094;2022-07-29T10:29:21;27.50;98.30
26212;DHT22;13951;49.516;6.094;2022-07-29T10:44:18;27.70;96.80
26212;DHT22;13951;49.516;6.094;2022-07-29T10:46:55;27.80;97.00
26212;DHT22;13951;49.516;6.094;2022-07-29T10:49:29;27.90;97.40
26212;DHT22;13951;49.516;6.094;2022-07-29T10:52:08;28.00;97.10
26212;DHT22;13951;49.516;6.094;2022-07-29T10:54:43;28.10;97.10
26212;DHT22;13951;49.516;6.094;2022-07-29T10:57:30;28.20;96.40
26212;DHT22;13951;49.516;6.094;2022-07-29T11:00:29;28.30;96.50
26212;DHT22;13951;49.516;6.094;2022-07-29T11:03:02;28.40;96.80
26212;DHT22;13951;49.516;6.094;2022-07-29T11:05:56;28.50;95.90
26212;DHT22;13951;49.516;6.094;2022-07-29T11:08:31;28.70;94.80
26212;DHT22;13951;49.516;6.094;2022-07-29T11:14:12;29.00;91.80
26212;DHT22;13951;49.516;6.094;2022-07-29T11:17:05;29.00;86.70
26212;DHT22;13951;49.516;6.094;2022-07-29T11:19:39;29.10;97.10
26212;DHT22;13951;49.516;6.094;2022-07-29T11:22:34;29.00;97.10
26212;DHT22;13951;49.516;6.094;2022-07-29T11:25:16;29.00;97.30
26212;DHT22;13951;49.516;6.094;2022-07-29T11:27:52;29.10;95.70
26212;DHT22;13951;49.516;6.094;2022-07-29T11:30:50;29.10;97.00
26212;DHT22;13951;49.516;6.094;2022-07-29T11:33:30;29.10;96.50
26212;DHT22;13951;49.516;6.094;2022-07-29T11:36:24;29.30;96.00
26212;DHT22;13951;49.516;6.094;2022-07-29T11:56:08;30.80;95.00
26212;DHT22;13951;49.516;6.094;2022-07-29T11:58:42;30.70;94.80
26212;DHT22;13951;49.516;6.094;2022-07-29T12:01:17;30.80;93.10
26212;DHT22;13951;49.516;6.094;2022-07-29T12:04:02;30.90;94.20
26212;DHT22;13951;49.516;6.094;2022-07-29T12:06:38;30.90;92.80
26212;DHT22;13951;49.516;6.094;2022-07-29T12:09:11;30.90;93.20
26212;DHT22;13951;49.516;6.094;2022-07-29T12:11:46;30.80;93.70
26212;DHT22;13951;49.516;6.094;2022-07-29T12:14:30;30.70;93.10
26212;DHT22;13951;49.516;6.094;2022-07-29T12:17:03;30.40;93.60
26212;DHT22;13951;49.516;6.094;2022-07-29T12:19:44;30.30;93.50
26212;DHT22;13951;49.516;6.094;2022-07-29T12:22:31;30.40;93.80
26212;DHT22;13951;49.516;6.094;2022-07-29T12:25:12;30.50;93.70
26212;DHT22;13951;49.516;6.094;2022-07-29T12:28:08;30.60;93.10
26212;DHT22;13951;49.516;6.094;2022-07-29T12:30:48;30.70;93.60
26212;DHT22;13951;49.516;6.094;2022-07-29T12:33:27;30.70;93.40
26212;DHT22;13951;49.516;6.094;2022-07-29T12:36:01;30.70;93.40
26212;DHT22;13951;49.516;6.094;2022-07-29T12:38:43;30.50;92.00
26212;DHT22;13951;49.516;6.094;2022-07-29T12:41:17;30.40;92.30
26212;DHT22;13951;49.516;6.094;2022-07-29T12:43:54;30.30;91.00
26212;DHT22;13951;49.516;6.094;2022-07-29T12:46:27;30.00;90.70
26212;DHT22;13951;49.516;6.094;2022-07-29T12:49:02;29.90;90.50
26212;DHT22;13951;49.516;6.094;2022-07-29T12:51:37;29.60;90.40
26212;DHT22;13951;49.516;6.094;2022-07-29T12:54:13;29.40;92.30
26212;DHT22;13951;49.516;6.094;2022-07-29T12:56:59;29.20;93.00
26212;DHT22;13951;49.516;6.094;2022-07-29T12:59:32;29.00;92.90
26212;DHT22;13951;49.516;6.094;2022-07-29T13:02:05;29.00;92.40
26212;DHT22;13951;49.516;6.094;2022-07-29T13:04:39;29.00;93.20
26212;DHT22;13951;49.516;6.094;2022-07-29T13:07:12;28.90;93.20
26212;DHT22;13951;49.516;6.094;2022-07-29T13:09:47;28.80;93.70
26212;DHT22;13951;49.516;6.094;2022-07-29T13:12:20;28.60;93.10
26212;DHT22;13951;49.516;6.094;2022-07-29T13:14:53;28.50;93.00
26212;DHT22;13951;49.516;6.094;2022-07-29T13:17:26;28.40;93.40
26212;DHT22;13951;49.516;6.094;2022-07-29T13:20:07;28.20;94.30
26212;DHT22;13951;49.516;6.094;2022-07-29T13:22:47;28.20;94.70
26212;DHT22;13951;49.516;6.094;2022-07-29T13:25:31;28.20;94.10
26212;DHT22;13951;49.516;6.094;2022-07-29T13:28:04;28.30;94.70
26212;DHT22;13951;49.516;6.094;2022-07-29T13:30:41;28.50;94.10
26212;DHT22;13951;49.516;6.094;2022-07-29T13:33:16;28.70;93.80
26212;DHT22;13951;49.516;6.094;2022-07-29T13:35:49;28.90;93.80
26212;DHT22;13951;49.516;6.094;2022-07-29T13:38:23;29.00;93.10
26212;DHT22;13951;49.516;6.094;2022-07-29T13:41:03;29.20;93.40
26212;DHT22;13951;49.516;6.094;2022-07-29T13:43:37;29.40;93.10
26212;DHT22;13951;49.516;6.094;2022-07-29T13:46:10;29.50;92.30
26212;DHT22;13951;49.516;6.094;2022-07-29T13:48:43;29.60;93.40
26212;DHT22;13951;49.516;6.094;2022-07-29T13:51:16;29.70;92.20
26212;DHT22;13951;49.516;6.094;2022-07-29T13:53:49;29.60;91.40
26212;DHT22;13951;49.516;6.094;2022-07-29T13:56:22;29.60;91.90
26212;DHT22;13951;49.516;6.094;2022-07-29T13:58:55;29.60;91.10
26212;DHT22;13951;49.516;6.094;2022-07-29T14:01:29;29.50;91.40
26212;DHT22;13951;49.516;6.094;2022-07-29T14:04:03;29.50;91.00
26212;DHT22;13951;49.516;6.094;2022-07-29T14:06:36;29.40;90.40
26212;DHT22;13951;49.516;6.094;2022-07-29T14:09:12;29.20;91.20
26212;DHT22;13951;49.516;6.094;2022-07-29T14:11:45;29.00;91.60
26212;DHT22;13951;49.516;6.094;2022-07-29T14:14:19;28.90;91.60
26212;DHT22;13951;49.516;6.094;2022-07-29T14:16:52;28.80;92.00
26212;DHT22;13951;49.516;6.094;2022-07-29T14:19:25;28.80;91.00
26212;DHT22;13951;49.516;6.094;2022-07-29T14:21:58;28.80;91.20
26212;DHT22;13951;49.516;6.094;2022-07-29T14:24:34;28.80;90.60
26212;DHT22;13951;49.516;6.094;2022-07-29T14:27:09;28.80;90.10
26212;DHT22;13951;49.516;6.094;2022-07-29T14:29:42;28.60;90.70
26212;DHT22;13951;49.516;6.094;2022-07-29T14:32:15;28.50;90.60
26212;DHT22;13951;49.516;6.094;2022-07-29T14:34:48;28.40;90.60
26212;DHT22;13951;49.516;6.094;2022-07-29T14:37:21;28.10;90.50
26212;DHT22;13951;49.516;6.094;2022-07-29T14:39:54;28.00;91.10
26212;DHT22;13951;49.516;6.094;2022-07-29T14:42:31;28.00;91.30
26212;DHT22;13951;49.516;6.094;2022-07-29T14:45:06;28.00;92.20
26212;DHT22;13951;49.516;6.094;2022-07-29T14:47:39;28.00;90.50
26212;DHT22;13951;49.516;6.094;2022-07-29T14:50:12;28.00;90.10
26212;DHT22;13951;49.516;6.094;2022-07-29T14:52:46;28.00;90.40
26212;DHT22;13951;49.516;6.094;2022-07-29T14:55:20;28.00;90.20
26212;DHT22;13951;49.516;6.094;2022-07-29T14:57:54;28.00;91.20
26212;DHT22;13951;49.516;6.094;2022-07-29T15:00:40;28.10;91.10
26212;DHT22;13951;49.516;6.094;2022-07-29T15:03:13;28.10;91.00
26212;DHT22;13951;49.516;6.094;2022-07-29T15:05:56;28.00;90.50
26212;DHT22;13951;49.516;6.094;2022-07-29T15:08:29;28.00;89.20
26212;DHT22;13951;49.516;6.094;2022-07-29T15:11:05;28.00;89.30
26212;DHT22;13951;49.516;6.094;2022-07-29T15:13:39;27.90;90.00
26212;DHT22;13951;49.516;6.094;2022-07-29T15:16:12;27.80;90.20
26212;DHT22;13951;49.516;6.094;2022-07-29T15:18:45;27.70;90.70
26212;DHT22;13951;49.516;6.094;2022-07-29T15:21:18;27.60;91.10
26212;DHT22;13951;49.516;6.094;2022-07-29T15:23:51;27.50;90.80
26212;DHT22;13951;49.516;6.094;2022-07-29T15:26:24;27.60;90.30
26212;DHT22;13951;49.516;6.094;2022-07-29T15:28:57;27.60;91.00
26212;DHT22;13951;49.516;6.094;2022-07-29T15:31:35;27.60;90.50
26212;DHT22;13951;49.516;6.094;2022-07-29T15:34:08;27.60;90.80
26212;DHT22;13951;49.516;6.094;2022-07-29T15:36:41;27.60;91.00
26212;DHT22;13951;49.516;6.094;2022-07-29T15:39:24;27.60;90.90
26212;DHT22;13951;49.516;6.094;2022-07-29T15:41:57;27.50;90.90
26212;DHT22;13951;49.516;6.094;2022-07-29T15:44:33;27.40;90.90
26212;DHT22;13951;49.516;6.094;2022-07-29T15:47:06;27.20;91.00
26212;DHT22;13951;49.516;6.094;2022-07-29T15:49:39;27.10;90.90
26212;DHT22;13951;49.516;6.094;2022-07-29T15:52:21;27.10;91.20
26212;DHT22;13951;49.516;6.094;2022-07-29T15:54:57;27.10;91.80
26212;DHT22;13951;49.516;6.094;2022-07-29T15:57:30;27.00;92.10
26212;DHT22;13951;49.516;6.094;2022-07-29T16:00:04;27.00;92.10
26212;DHT22;13951;49.516;6.094;2022-07-29T16:02:40;27.00;92.40
26212;DHT22;13951;49.516;6.094;2022-07-29T16:05:13;26.90;92.30
26212;DHT22;13951;49.516;6.094;2022-07-29T16:07:46;26.90;92.20
26212;DHT22;13951;49.516;6.094;2022-07-29T16:10:19;26.90;92.00
26212;DHT22;13951;49.516;6.094;2022-07-29T16:12:52;26.90;92.20
26212;DHT22;13951;49.516;6.094;2022-07-29T16:15:26;26.80;92.10
26212;DHT22;13951;49.516;6.094;2022-07-29T16:17:59;26.80;93.30
26212;DHT22;13951;49.516;6.094;2022-07-29T16:20:32;26.80;92.90
26212;DHT22;13951;49.516;6.094;2022-07-29T16:23:05;26.70;93.10
26212;DHT22;13951;49.516;6.094;2022-07-29T16:25:41;26.60;93.00
26212;DHT22;13951;49.516;6.094;2022-07-29T16:28:32;26.60;93.50
26212;DHT22;13951;49.516;6.094;2022-07-29T16:31:05;26.60;93.50
26212;DHT22;13951;49.516;6.094;2022-07-29T16:33:38;26.60;93.50
26212;DHT22;13951;49.516;6.094;2022-07-29T16:36:27;26.50;93.70
26212;DHT22;13951;49.516;6.094;2022-07-29T16:39:00;26.50;94.50
26212;DHT22;13951;49.516;6.094;2022-07-29T16:41:33;26.50;94.40
26212;DHT22;13951;49.516;6.094;2022-07-29T16:44:06;26.50;94.50
26212;DHT22;13951;49.516;6.094;2022-07-29T16:46:43;26.40;94.90
26212;DHT22;13951;49.516;6.094;2022-07-29T16:49:16;26.40;95.10
26212;DHT22;13951;49.516;6.094;2022-07-29T16:51:51;26.30;95.10
26212;DHT22;13951;49.516;6.094;2022-07-29T16:54:25;26.30;95.20
26212;DHT22;13951;49.516;6.094;2022-07-29T16:56:58;26.30;95.40
26212;DHT22;13951;49.516;6.094;2022-07-29T16:59:34;26.30;95.50
26212;DHT22;13951;49.516;6.094;2022-07-29T17:02:15;26.20;95.40
26212;DHT22;13951;49.516;6.094;2022-07-29T17:04:48;26.20;95.60
26212;DHT22;13951;49.516;6.094;2022-07-29T17:07:21;26.10;96.00